createdAt,value
2023-02-14T00:02:00.757Z,98.87
2023-02-14T00:04:29.992Z,96.00
2023-02-14T00:06:58.425Z,103.80
2023-02-14T00:09:27.010Z,110.77
2023-02-14T00:11:55.386Z,113.47
2023-02-14T00:14:42.387Z,111.37
2023-02-14T00:17:10.850Z,112.13
2023-02-14T00:19:39.443Z,113.87
2023-02-14T00:22:07.981Z,106.50
2023-02-14T00:24:36.335Z,102.20
2023-02-14T00:27:05.386Z,106.47
2023-02-14T00:29:35.300Z,111.87
2023-02-14T00:32:04.017Z,115.63
2023-02-14T00:34:33.444Z,88.40
2023-02-14T00:37:02.302Z,96.53
2023-02-14T00:39:30.961Z,104.23
2023-02-14T00:41:59.539Z,105.60
2023-02-14T00:44:27.915Z,98.50
2023-02-14T00:46:57.647Z,98.97
2023-02-14T00:49:26.160Z,92.40
2023-02-14T00:51:54.640Z,91.63
2023-02-14T00:54:23.037Z,97.57
2023-02-14T00:56:51.333Z,97.87
2023-02-14T00:59:19.737Z,95.43
2023-02-14T01:01:48.141Z,92.33
2023-02-14T01:04:18.271Z,92.83
2023-02-14T01:06:46.857Z,95.40
2023-02-14T01:09:15.359Z,94.77
2023-02-14T01:11:43.746Z,92.90
2023-02-14T01:14:12.157Z,85.27
2023-02-14T01:16:40.916Z,94.00
2023-02-14T01:19:10.288Z,85.30
2023-02-14T01:21:40.056Z,85.53
2023-02-14T01:24:09.614Z,88.30
2023-02-14T01:26:38.236Z,91.87
2023-02-14T01:29:07.665Z,92.33
2023-02-14T01:31:37.204Z,98.07
2023-02-14T01:34:06.084Z,87.67
2023-02-14T01:36:37.489Z,94.80
2023-02-14T01:39:08.751Z,94.83
2023-02-14T01:41:39.771Z,102.70
2023-02-14T01:44:09.981Z,102.40
2023-02-14T01:46:39.318Z,95.30
2023-02-14T01:49:10.635Z,99.87
2023-02-14T01:51:42.602Z,102.37
2023-02-14T01:54:13.344Z,104.63
2023-02-14T01:56:45.621Z,106.77
2023-02-14T01:59:19.203Z,112.20
2023-02-14T02:01:49.966Z,115.13
2023-02-14T02:04:23.943Z,101.50
2023-02-14T02:06:56.530Z,104.30
2023-02-14T02:09:33.938Z,103.43
2023-02-14T02:12:03.338Z,106.57
2023-02-14T02:14:32.435Z,106.97
2023-02-14T02:17:18.246Z,112.20
2023-02-14T02:20:27.081Z,116.20
2023-02-14T02:23:29.273Z,124.27
2023-02-14T02:26:33.179Z,110.43
2023-02-14T02:29:47.458Z,111.50
2023-02-14T02:32:54.244Z,122.00
2023-02-14T02:35:50.224Z,108.00
2023-02-14T02:38:44.070Z,117.50
2023-02-14T02:41:21.179Z,126.57
2023-02-14T02:43:57.328Z,128.43
2023-02-14T02:46:50.606Z,135.00
2023-02-14T02:49:48.179Z,128.73
2023-02-14T02:52:43.267Z,138.00
2023-02-14T02:55:18.893Z,130.93
2023-02-14T02:57:48.840Z,139.93
2023-02-14T03:00:19.124Z,131.80
2023-02-14T03:03:09.348Z,130.43
2023-02-14T03:05:38.909Z,131.50
2023-02-14T03:08:08.663Z,108.00
2023-02-14T03:10:39.332Z,113.93
2023-02-14T03:13:30.119Z,101.63
2023-02-14T03:16:35.621Z,117.87
2023-02-14T03:19:32.362Z,123.80
2023-02-14T03:22:07.959Z,106.67
2023-02-14T03:24:47.944Z,117.10
2023-02-14T03:27:23.706Z,122.27
2023-02-14T03:30:02.608Z,120.27
2023-02-14T03:32:38.559Z,119.17
2023-02-14T03:35:14.041Z,114.33
2023-02-14T03:37:48.699Z,119.87
2023-02-14T03:40:23.198Z,125.53
2023-02-14T03:42:55.808Z,120.60
2023-02-14T03:45:30.323Z,114.77
2023-02-14T03:48:03.624Z,110.33
2023-02-14T03:50:34.271Z,124.27
2023-02-14T03:53:04.726Z,122.13
2023-02-14T03:55:39.407Z,193.97
2023-02-14T03:58:14.530Z,139.77
2023-02-14T04:00:44.885Z,119.57
2023-02-14T04:03:18.227Z,126.17
2023-02-14T04:05:52.497Z,123.70
2023-02-14T04:08:25.784Z,117.30
2023-02-14T04:10:57.849Z,128.87
2023-02-14T04:13:26.467Z,122.13
2023-02-14T04:15:56.006Z,115.47
2023-02-14T04:18:41.771Z,128.57
2023-02-14T04:21:10.083Z,124.27
2023-02-14T04:23:38.513Z,134.33
2023-02-14T04:26:08.360Z,133.63
2023-02-14T04:28:36.772Z,136.17
2023-02-14T04:31:06.783Z,156.37
2023-02-14T04:33:35.760Z,155.37
2023-02-14T04:36:05.722Z,186.43
2023-02-14T04:38:34.380Z,236.00
2023-02-14T04:41:03.824Z,178.77
2023-02-14T04:43:33.723Z,180.87
2023-02-14T04:46:02.407Z,165.97
2023-02-14T04:48:30.985Z,163.47
2023-02-14T04:50:59.665Z,197.10
2023-02-14T04:53:29.151Z,197.33
2023-02-14T04:55:57.662Z,164.40
2023-02-14T04:58:26.021Z,134.67
2023-02-14T05:00:55.825Z,154.87
2023-02-14T05:03:24.490Z,151.50
2023-02-14T05:05:52.802Z,143.63
2023-02-14T05:08:21.619Z,146.00
2023-02-14T05:10:50.064Z,141.17
2023-02-14T05:13:18.784Z,142.57
2023-02-14T05:15:47.368Z,153.03
2023-02-14T05:18:17.191Z,152.30
2023-02-14T05:20:45.653Z,153.87
2023-02-14T05:23:14.106Z,159.93
2023-02-14T05:25:42.524Z,157.70
2023-02-14T05:28:11.084Z,154.93
2023-02-14T05:30:39.952Z,161.07
2023-02-14T05:33:08.605Z,173.83
2023-02-14T05:35:38.597Z,164.93
2023-02-14T05:38:07.049Z,153.73
2023-02-14T05:40:35.660Z,150.63
2023-02-14T05:43:05.045Z,149.57
2023-02-14T05:45:33.529Z,159.10
2023-02-14T05:48:02.113Z,157.47
2023-02-14T05:50:31.504Z,160.43
2023-02-14T05:53:03.343Z,161.87
2023-02-14T05:55:32.175Z,160.20
2023-02-14T05:58:00.552Z,167.80
2023-02-14T06:00:29.163Z,156.87
2023-02-14T06:02:57.699Z,155.53
2023-02-14T06:05:27.110Z,156.23
2023-02-14T06:07:55.642Z,159.30
2023-02-14T06:10:26.992Z,158.53
2023-02-14T06:12:55.863Z,158.37
2023-02-14T06:15:24.345Z,154.03
2023-02-14T06:17:54.115Z,157.03
2023-02-14T06:20:24.205Z,152.80
2023-02-14T06:22:53.255Z,147.33
2023-02-14T06:25:21.966Z,146.50
2023-02-14T06:27:52.091Z,157.97
2023-02-14T06:30:20.610Z,151.87
2023-02-14T06:32:49.227Z,155.50
2023-02-14T06:35:17.781Z,171.57
2023-02-14T06:37:46.347Z,158.47
2023-02-14T06:40:15.602Z,153.70
2023-02-14T06:42:44.488Z,153.33
2023-02-14T06:45:14.330Z,149.77
2023-02-14T06:47:42.788Z,152.70
2023-02-14T06:50:12.810Z,143.33
2023-02-14T06:52:42.241Z,144.10
2023-02-14T06:55:12.290Z,140.23
2023-02-14T06:57:41.431Z,146.17
2023-02-14T07:00:11.316Z,142.77
2023-02-14T07:02:41.071Z,147.43
2023-02-14T07:05:09.815Z,141.90
2023-02-14T07:07:38.199Z,146.80
2023-02-14T07:10:07.759Z,142.27
2023-02-14T07:12:36.140Z,143.50
2023-02-14T07:15:05.730Z,126.23
2023-02-14T07:17:34.097Z,139.80
2023-02-14T07:20:04.022Z,137.37
2023-02-14T07:22:32.432Z,135.50
2023-02-14T07:25:00.958Z,137.00
2023-02-14T07:27:30.003Z,140.37
2023-02-14T07:29:58.478Z,135.20
2023-02-14T07:32:27.161Z,134.87
2023-02-14T07:34:55.794Z,151.23
2023-02-14T07:37:25.695Z,148.47
2023-02-14T07:39:54.056Z,145.50
2023-02-14T07:42:22.443Z,141.10
2023-02-14T07:44:50.884Z,151.37
2023-02-14T07:47:19.703Z,148.33
2023-02-14T07:49:48.162Z,151.60
2023-02-14T07:52:16.636Z,158.07
2023-02-14T07:54:46.325Z,148.23
2023-02-14T07:57:14.757Z,152.33
2023-02-14T07:59:43.221Z,147.10
2023-02-14T08:02:13.418Z,152.30
2023-02-14T08:04:41.855Z,152.13
2023-02-14T08:07:10.337Z,155.83
2023-02-14T08:09:38.692Z,150.50
2023-02-14T08:12:26.703Z,154.27
2023-02-14T08:14:55.007Z,147.77
2023-02-14T08:17:23.480Z,145.20
2023-02-14T08:19:51.976Z,144.87
2023-02-14T08:22:20.306Z,148.43
2023-02-14T08:24:48.798Z,154.90
2023-02-14T08:27:18.609Z,131.40
2023-02-14T08:29:47.044Z,133.43
2023-02-14T08:32:21.035Z,139.07
2023-02-14T08:34:49.625Z,135.03
2023-02-14T08:37:18.087Z,137.00
2023-02-14T08:39:46.425Z,139.20
2023-02-14T08:42:14.908Z,140.13
2023-02-14T08:44:44.701Z,139.13
2023-02-14T08:47:13.439Z,136.73
2023-02-14T08:49:41.888Z,140.23
2023-02-14T08:52:10.239Z,137.02
2023-02-14T08:54:38.589Z,141.60
2023-02-14T08:57:07.224Z,137.93
2023-02-14T08:59:35.710Z,137.90
2023-02-14T09:02:05.486Z,131.63
2023-02-14T09:04:36.346Z,135.82
2023-02-14T09:07:05.784Z,140.68
2023-02-14T09:09:34.334Z,140.50
2023-02-14T09:12:05.907Z,134.52
2023-02-14T09:14:37.181Z,135.38
2023-02-14T09:17:07.938Z,131.30
2023-02-14T09:19:37.373Z,129.93
2023-02-14T09:22:07.902Z,125.82
2023-02-14T09:24:38.152Z,125.75
2023-02-14T09:27:07.146Z,120.00
2023-02-14T09:29:36.014Z,119.00
2023-02-14T09:32:06.888Z,122.43
2023-02-14T09:34:36.996Z,121.07
2023-02-14T09:37:06.516Z,120.25
2023-02-14T09:39:35.172Z,115.07
2023-02-14T09:42:15.130Z,116.93
2023-02-14T09:44:46.664Z,118.18
2023-02-14T09:47:23.343Z,111.30
2023-02-14T09:49:53.892Z,113.20
2023-02-14T09:52:27.192Z,107.72
2023-02-14T09:54:59.210Z,108.35
2023-02-14T09:57:38.695Z,108.60
2023-02-14T10:00:20.601Z,102.70
2023-02-14T10:03:01.624Z,103.07
2023-02-14T10:05:34.087Z,97.78
2023-02-14T10:08:17.814Z,103.80
2023-02-14T10:10:50.714Z,101.35
2023-02-14T10:13:23.965Z,101.70
2023-02-14T10:15:59.061Z,96.85
2023-02-14T10:18:35.716Z,94.45
2023-02-14T10:21:05.875Z,94.07
2023-02-14T10:23:37.949Z,91.68
2023-02-14T10:26:13.984Z,95.25
2023-02-14T10:28:46.494Z,92.72
2023-02-14T10:31:23.486Z,93.82
2023-02-14T10:33:57.874Z,90.28
2023-02-14T10:36:41.236Z,88.00
2023-02-14T10:39:22.800Z,92.47
2023-02-14T10:42:00.327Z,92.00
2023-02-14T10:44:40.190Z,85.68
2023-02-14T10:47:21.480Z,83.15
2023-02-14T10:49:59.307Z,87.18
2023-02-14T10:52:39.196Z,85.53
2023-02-14T10:55:31.482Z,78.53
2023-02-14T10:58:04.166Z,80.93
2023-02-14T11:00:35.426Z,78.38
2023-02-14T11:03:10.962Z,77.93
2023-02-14T11:05:47.032Z,75.05
2023-02-14T11:08:17.125Z,78.25
2023-02-14T11:10:45.868Z,76.95
2023-02-14T11:13:36.812Z,76.68
2023-02-14T11:16:08.933Z,70.05
2023-02-14T11:18:40.052Z,69.97
2023-02-14T11:21:14.611Z,69.45
2023-02-14T11:23:51.216Z,66.53
2023-02-14T11:26:24.434Z,64.57
2023-02-14T11:28:57.490Z,65.53
2023-02-14T11:31:31.094Z,63.13
2023-02-14T11:34:04.710Z,63.03
2023-02-14T11:36:42.820Z,61.67
2023-02-14T11:39:23.159Z,59.05
2023-02-14T11:41:53.465Z,58.25
2023-02-14T11:44:24.259Z,59.75
2023-02-14T11:46:54.416Z,54.35
2023-02-14T11:49:33.102Z,52.53
2023-02-14T11:52:11.336Z,56.65
2023-02-14T11:54:42.383Z,56.50
2023-02-14T11:57:16.922Z,54.22
2023-02-14T11:59:48.459Z,55.75
2023-02-14T12:02:26.195Z,58.72
2023-02-14T12:04:57.915Z,55.72
2023-02-14T12:07:31.978Z,54.65
2023-02-14T12:10:20.630Z,51.65
2023-02-14T12:12:59.991Z,51.65
2023-02-14T12:15:36.804Z,50.05
2023-02-14T12:18:29.805Z,48.35
2023-02-14T12:21:09.875Z,46.28
2023-02-14T12:23:46.259Z,47.70
2023-02-14T12:26:25.741Z,45.22
2023-02-14T12:29:05.121Z,42.38
2023-02-14T12:31:33.659Z,41.72
2023-02-14T12:34:03.888Z,40.80
2023-02-14T12:36:46.334Z,38.95
2023-02-14T12:39:24.430Z,36.28
2023-02-14T12:42:04.722Z,34.92
2023-02-14T12:44:41.896Z,33.15
2023-02-14T12:47:19.026Z,35.55
2023-02-14T12:50:14.337Z,33.60
2023-02-14T12:53:03.184Z,33.30
2023-02-14T12:55:45.658Z,33.35
2023-02-14T12:58:26.959Z,33.70
2023-02-14T13:01:06.477Z,33.20
2023-02-14T13:03:51.889Z,35.03
2023-02-14T13:06:27.010Z,34.05
2023-02-14T13:09:18.416Z,33.45
2023-02-14T13:11:59.579Z,32.63
2023-02-14T13:14:43.588Z,32.60
2023-02-14T13:17:20.637Z,31.75
2023-02-14T13:19:58.383Z,31.98
2023-02-14T13:22:29.825Z,33.22
2023-02-14T13:25:02.150Z,32.00
2023-02-14T13:27:36.446Z,32.78
2023-02-14T13:30:09.706Z,31.17
2023-02-14T13:32:43.256Z,32.63
2023-02-14T13:35:21.066Z,33.05
2023-02-14T13:37:53.952Z,32.92
2023-02-14T13:40:24.756Z,32.85
2023-02-14T13:42:58.807Z,33.33
2023-02-14T13:45:53.807Z,33.25
2023-02-14T13:48:24.407Z,32.30
2023-02-14T13:50:56.117Z,33.70
2023-02-14T13:53:41.046Z,34.15
2023-02-14T13:56:33.443Z,33.25
2023-02-14T13:59:06.378Z,33.05
2023-02-14T14:01:39.135Z,33.88
2023-02-14T14:04:32.077Z,35.00
2023-02-14T14:07:23.548Z,33.90
2023-02-14T14:09:57.960Z,33.28
2023-02-14T14:12:40.440Z,33.78
2023-02-14T14:15:20.480Z,35.20
2023-02-14T14:18:12.046Z,33.00
2023-02-14T14:20:47.980Z,33.17
2023-02-14T14:23:37.341Z,35.50
2023-02-14T14:26:45.563Z,34.35
2023-02-14T14:29:20.346Z,32.92
2023-02-14T14:31:55.713Z,33.42
2023-02-14T14:34:26.286Z,34.63
2023-02-14T14:37:03.834Z,33.17
2023-02-14T14:39:34.695Z,35.05
2023-02-14T14:42:14.846Z,34.28
2023-02-14T14:44:48.655Z,37.05
2023-02-14T14:47:22.741Z,34.45
2023-02-14T14:49:51.598Z,35.45
2023-02-14T14:52:36.336Z,35.13
2023-02-14T14:55:07.356Z,34.58
2023-02-14T14:57:37.803Z,35.28
2023-02-14T15:00:23.181Z,35.67
2023-02-14T15:03:05.796Z,37.15
2023-02-14T15:05:36.829Z,35.83
2023-02-14T15:08:22.194Z,37.53
2023-02-14T15:10:53.882Z,37.47
2023-02-14T15:13:46.327Z,37.42
2023-02-14T15:16:19.291Z,36.40
2023-02-14T15:18:50.077Z,34.85
2023-02-14T15:21:18.675Z,33.28
2023-02-14T15:23:47.341Z,35.63
2023-02-14T15:26:21.468Z,33.20
2023-02-14T15:28:57.541Z,32.58
2023-02-14T15:31:32.138Z,31.95
2023-02-14T15:34:03.851Z,34.85
2023-02-14T15:36:35.022Z,34.72
2023-02-14T15:39:06.983Z,35.90
2023-02-14T15:41:35.369Z,35.58
2023-02-14T15:44:04.314Z,36.25
2023-02-14T15:46:36.737Z,35.88
2023-02-14T15:49:11.776Z,35.78
2023-02-14T15:51:40.844Z,35.90
2023-02-14T15:54:22.760Z,35.15
2023-02-14T15:56:53.946Z,35.25
2023-02-14T15:59:27.639Z,35.42
2023-02-14T16:01:59.627Z,36.65
2023-02-14T16:04:32.381Z,33.75
2023-02-14T16:07:24.108Z,35.42
2023-02-14T16:10:13.830Z,34.65
2023-02-14T16:12:42.571Z,35.67
2023-02-14T16:15:20.336Z,35.40
2023-02-14T16:17:49.132Z,36.58
2023-02-14T16:20:24.092Z,34.75
2023-02-14T16:22:53.114Z,36.30
2023-02-14T16:25:21.785Z,34.75
2023-02-14T16:27:51.374Z,37.05
2023-02-14T16:30:20.723Z,38.47
2023-02-14T16:32:53.744Z,37.25
2023-02-14T16:35:23.727Z,34.65
2023-02-14T16:37:53.307Z,38.00
2023-02-14T16:40:27.647Z,38.33
2023-02-14T16:42:56.133Z,37.60
2023-02-14T16:45:24.520Z,38.55
2023-02-14T16:47:52.941Z,39.30
2023-02-14T16:50:22.767Z,41.45
2023-02-14T16:52:55.994Z,41.80
2023-02-14T16:55:28.867Z,41.80
2023-02-14T16:57:58.555Z,39.53
2023-02-14T17:00:27.463Z,40.60
2023-02-14T17:03:05.800Z,38.63
2023-02-14T17:05:36.036Z,41.67
2023-02-14T17:08:08.650Z,38.58
2023-02-14T17:10:37.401Z,39.65
2023-02-14T17:13:07.420Z,42.63
2023-02-14T17:15:36.391Z,44.25
2023-02-14T17:18:09.979Z,42.05
2023-02-14T17:20:38.714Z,44.75
2023-02-14T17:23:09.122Z,45.90
2023-02-14T17:25:39.002Z,43.50
2023-02-14T17:28:07.348Z,44.45
2023-02-14T17:30:35.913Z,44.90
2023-02-14T17:33:04.849Z,45.58
2023-02-14T17:35:35.350Z,47.97
2023-02-14T17:38:05.403Z,48.88
2023-02-14T17:40:35.132Z,50.58
2023-02-14T17:43:04.268Z,50.35
2023-02-14T17:45:32.684Z,49.83
2023-02-14T17:48:01.740Z,53.22
2023-02-14T17:50:30.358Z,49.03
2023-02-14T17:53:00.045Z,52.33
2023-02-14T17:55:28.844Z,50.72
2023-02-14T17:57:58.701Z,57.63
2023-02-14T18:00:27.222Z,53.72
2023-02-14T18:02:55.719Z,53.90
2023-02-14T18:05:24.139Z,70.28
2023-02-14T18:07:52.990Z,69.45
2023-02-14T18:10:21.464Z,75.88
2023-02-14T18:12:49.835Z,73.97
2023-02-14T18:15:19.969Z,74.93
2023-02-14T18:17:51.325Z,84.13
2023-02-14T18:20:19.945Z,81.57
2023-02-14T18:22:48.443Z,84.60
2023-02-14T18:25:16.875Z,83.88
2023-02-14T18:27:45.492Z,87.63
2023-02-14T18:30:14.689Z,90.88
2023-02-14T18:32:44.480Z,84.50
2023-02-14T18:35:13.155Z,84.82
2023-02-14T18:37:42.676Z,87.90
2023-02-14T18:40:18.474Z,91.20
2023-02-14T18:42:46.811Z,89.30
2023-02-14T18:45:15.351Z,89.13
2023-02-14T18:47:45.063Z,92.45
2023-02-14T18:50:13.617Z,103.03
2023-02-14T18:52:42.200Z,100.25
2023-02-14T18:55:10.706Z,100.40
2023-02-14T18:57:39.348Z,105.40
2023-02-14T19:00:12.140Z,107.72
2023-02-14T19:02:40.830Z,111.90
2023-02-14T19:05:29.180Z,111.40
2023-02-14T19:07:59.088Z,118.05
2023-02-14T19:10:27.517Z,111.97
2023-02-14T19:12:56.095Z,122.60
2023-02-14T19:15:24.437Z,121.97
2023-02-14T19:17:54.217Z,125.00
2023-02-14T19:20:22.745Z,122.05
2023-02-14T19:22:52.504Z,124.70
2023-02-14T19:25:21.091Z,127.38
2023-02-14T19:27:52.824Z,108.75
2023-02-14T19:30:21.570Z,117.13
2023-02-14T19:32:50.314Z,130.95
2023-02-14T19:35:19.015Z,115.85
2023-02-14T19:37:48.931Z,129.85
2023-02-14T19:40:18.920Z,120.25
2023-02-14T19:42:47.748Z,125.88
2023-02-14T19:45:16.123Z,125.13
2023-02-14T19:47:47.409Z,141.13
2023-02-14T19:50:16.040Z,149.25
2023-02-14T19:52:45.019Z,155.50
2023-02-14T19:55:25.000Z,154.15
2023-02-14T19:57:54.218Z,153.93
2023-02-14T20:00:22.939Z,155.48
2023-02-14T20:02:51.469Z,146.25
2023-02-14T20:05:20.493Z,140.27
2023-02-14T20:07:52.019Z,137.20
2023-02-14T20:10:21.996Z,145.80
2023-02-14T20:12:50.353Z,156.48
2023-02-14T20:15:18.887Z,161.53
2023-02-14T20:17:47.227Z,134.53
2023-02-14T20:20:16.641Z,146.60
2023-02-14T20:22:45.246Z,162.48
2023-02-14T20:25:13.656Z,170.03
2023-02-14T20:27:43.529Z,162.75
2023-02-14T20:30:12.940Z,153.97
2023-02-14T20:32:41.472Z,153.85
2023-02-14T20:35:10.101Z,158.97
2023-02-14T20:37:38.580Z,159.38
2023-02-14T20:40:10.938Z,153.27
2023-02-14T20:42:39.771Z,160.77
2023-02-14T20:45:10.178Z,179.67
2023-02-14T20:47:39.073Z,193.73
2023-02-14T20:50:08.620Z,187.53
2023-02-14T20:52:37.871Z,192.73
2023-02-14T20:55:07.171Z,185.37
2023-02-14T20:57:35.512Z,187.93
2023-02-14T21:00:06.189Z,196.70
2023-02-14T21:02:36.404Z,181.73
2023-02-14T21:05:06.713Z,181.40
2023-02-14T21:07:35.132Z,184.03
2023-02-14T21:10:04.222Z,188.50
2023-02-14T21:12:32.676Z,188.80
2023-02-14T21:15:01.113Z,182.27
2023-02-14T21:17:30.405Z,168.68
2023-02-14T21:20:00.120Z,161.70
2023-02-14T21:22:29.615Z,160.18
2023-02-14T21:24:58.024Z,154.97
2023-02-14T21:27:26.805Z,190.30
2023-02-14T21:29:55.464Z,152.93
2023-02-14T21:32:23.875Z,149.70
2023-02-14T21:34:52.264Z,150.43
2023-02-14T21:37:22.572Z,154.50
2023-02-14T21:39:51.281Z,153.43
2023-02-14T21:42:21.272Z,152.70
2023-02-14T21:45:08.246Z,155.45
2023-02-14T21:47:39.997Z,135.80
2023-02-14T21:50:26.652Z,136.93
2023-02-14T21:52:56.383Z,145.77
2023-02-14T21:55:24.691Z,150.17
2023-02-14T21:57:53.111Z,141.10
2023-02-14T22:00:22.690Z,134.47
2023-02-14T22:02:51.088Z,138.10
2023-02-14T22:05:19.541Z,124.17
2023-02-14T22:07:47.898Z,125.80
2023-02-14T22:10:18.016Z,130.73
2023-02-14T22:12:47.522Z,133.67
2023-02-14T22:15:16.015Z,135.03
2023-02-14T22:17:44.869Z,132.03
2023-02-14T22:20:32.185Z,142.87
2023-02-14T22:23:00.610Z,146.23
2023-02-14T22:25:30.328Z,168.93
2023-02-14T22:27:59.051Z,130.97
2023-02-14T22:30:27.553Z,149.87
2023-02-14T22:32:55.914Z,130.13
2023-02-14T22:35:24.301Z,125.27
2023-02-14T22:37:52.689Z,138.43
2023-02-14T22:40:21.367Z,138.10
2023-02-14T22:42:51.235Z,136.00
2023-02-14T22:45:20.111Z,132.47
2023-02-14T22:47:48.520Z,134.83
2023-02-14T22:50:17.170Z,137.07
2023-02-14T22:52:45.502Z,133.43
2023-02-14T22:55:13.845Z,161.67
2023-02-14T22:57:42.711Z,156.80
2023-02-14T23:00:13.536Z,232.03
2023-02-14T23:02:42.254Z,176.20
2023-02-14T23:05:10.728Z,154.10
2023-02-14T23:07:39.123Z,162.90
2023-02-14T23:10:09.106Z,258.47
2023-02-14T23:12:55.101Z,250.57
2023-02-14T23:15:42.674Z,256.20
2023-02-14T23:18:31.238Z,267.60
2023-02-14T23:21:16.908Z,272.47
2023-02-14T23:23:45.237Z,239.93
2023-02-14T23:26:14.187Z,223.50
2023-02-14T23:28:42.594Z,216.57
2023-02-14T23:31:12.433Z,202.37
2023-02-14T23:33:40.781Z,154.30
2023-02-14T23:36:09.599Z,140.27
2023-02-14T23:38:38.085Z,119.53
2023-02-14T23:41:29.183Z,139.97
2023-02-14T23:43:57.536Z,211.60
2023-02-14T23:46:27.300Z,264.93
2023-02-14T23:48:56.674Z,226.60
2023-02-14T23:51:25.160Z,148.33
2023-02-14T23:53:55.066Z,243.50
2023-02-14T23:56:23.458Z,301.03
2023-02-14T23:58:51.791Z,166.10
